sensor_id;sensor_type;location;lat;lon;timestamp;P1;durP1;ratioP1;P2;durP2;ratioP2
33022;SDS011;19390;51.460;5.710;2023-04-22T00:00:48;8.63;;;7.25;;
33022;SDS011;19390;51.460;5.710;2023-04-22T00:03:14;11.02;;;8.93;;
33022;SDS011;19390;51.460;5.710;2023-04-22T00:05:40;10.85;;;7.57;;
33022;SDS011;19390;51.460;5.710;2023-04-22T00:08:06;10.35;;;8.43;;
33022;SDS011;19390;51.460;5.710;2023-04-22T00:10:32;8.82;;;7.18;;
33022;SDS011;19390;51.460;5.710;2023-04-22T00:12:58;10.93;;;8.82;;
33022;SDS011;19390;51.460;5.710;2023-04-22T00:15:23;8.73;;;7.53;;
33022;SDS011;19390;51.460;5.710;2023-04-22T00:17:50;11.35;;;8.57;;
33022;SDS011;19390;51.460;5.710;2023-04-22T00:20:17;14.27;;;9.98;;
33022;SDS011;19390;51.460;5.710;2023-04-22T00:22:47;11.10;;;9.18;;
33022;SDS011;19390;51.460;5.710;2023-04-22T00:25:13;12.40;;;8.82;;
33022;SDS011;19390;51.460;5.710;2023-04-22T00:27:38;11.40;;;8.68;;
33022;SDS011;19390;51.460;5.710;2023-04-22T00:30:04;12.05;;;8.85;;
33022;SDS011;19390;51.460;5.710;2023-04-22T00:32:30;11.80;;;9.48;;
33022;SDS011;19390;51.460;5.710;2023-04-22T00:34:56;10.38;;;8.40;;
33022;SDS011;19390;51.460;5.710;2023-04-22T00:37:22;9.60;;;8.43;;
33022;SDS011;19390;51.460;5.710;2023-04-22T00:39:48;12.50;;;10.73;;
33022;SDS011;19390;51.460;5.710;2023-04-22T00:42:14;13.10;;;10.90;;
33022;SDS011;19390;51.460;5.710;2023-04-22T00:44:40;11.23;;;8.88;;
33022;SDS011;19390;51.460;5.710;2023-04-22T00:47:06;10.38;;;8.45;;
33022;SDS011;19390;51.460;5.710;2023-04-22T00:49:33;13.40;;;8.88;;
33022;SDS011;19390;51.460;5.710;2023-04-22T00:52:00;11.85;;;9.35;;
33022;SDS011;19390;51.460;5.710;2023-04-22T00:54:26;10.52;;;7.80;;
33022;SDS011;19390;51.460;5.710;2023-04-22T00:56:52;13.38;;;10.27;;
33022;SDS011;19390;51.460;5.710;2023-04-22T00:59:19;11.52;;;8.57;;
33022;SDS011;19390;51.460;5.710;2023-04-22T01:01:45;18.70;;;14.65;;
33022;SDS011;19390;51.460;5.710;2023-04-22T01:04:11;16.10;;;11.40;;
33022;SDS011;19390;51.460;5.710;2023-04-22T01:06:38;13.57;;;10.13;;
33022;SDS011;19390;51.460;5.710;2023-04-22T01:09:05;12.75;;;11.15;;
33022;SDS011;19390;51.460;5.710;2023-04-22T01:11:31;15.32;;;12.20;;
33022;SDS011;19390;51.460;5.710;2023-04-22T01:13:58;17.98;;;13.88;;
33022;SDS011;19390;51.460;5.710;2023-04-22T01:16:24;13.27;;;10.98;;
33022;SDS011;19390;51.460;5.710;2023-04-22T01:18:49;13.45;;;11.10;;
33022;SDS011;19390;51.460;5.710;2023-04-22T01:21:16;14.20;;;11.70;;
33022;SDS011;19390;51.460;5.710;2023-04-22T01:23:43;13.02;;;11.15;;
33022;SDS011;19390;51.460;5.710;2023-04-22T01:26:09;12.55;;;11.10;;
33022;SDS011;19390;51.460;5.710;2023-04-22T01:28:35;14.07;;;11.88;;
33022;SDS011;19390;51.460;5.710;2023-04-22T01:31:01;18.25;;;12.07;;
33022;SDS011;19390;51.460;5.710;2023-04-22T01:33:26;15.57;;;13.73;;
33022;SDS011;19390;51.460;5.710;2023-04-22T01:35:52;16.98;;;13.10;;
33022;SDS011;19390;51.460;5.710;2023-04-22T01:38:18;16.67;;;13.45;;
33022;SDS011;19390;51.460;5.710;2023-04-22T01:40:44;15.90;;;12.75;;
33022;SDS011;19390;51.460;5.710;2023-04-22T01:43:09;18.13;;;15.48;;
33022;SDS011;19390;51.460;5.710;2023-04-22T01:45:35;14.75;;;12.88;;
33022;SDS011;19390;51.460;5.710;2023-04-22T01:48:00;21.63;;;15.63;;
33022;SDS011;19390;51.460;5.710;2023-04-22T01:50:26;17.73;;;14.65;;
33022;SDS011;19390;51.460;5.710;2023-04-22T01:52:52;15.55;;;13.95;;
33022;SDS011;19390;51.460;5.710;2023-04-22T01:55:17;17.50;;;15.50;;
33022;SDS011;19390;51.460;5.710;2023-04-22T01:57:43;14.23;;;12.73;;
33022;SDS011;19390;51.460;5.710;2023-04-22T02:00:09;15.35;;;13.75;;
33022;SDS011;19390;51.460;5.710;2023-04-22T02:02:35;19.38;;;16.20;;
33022;SDS011;19390;51.460;5.710;2023-04-22T02:05:00;17.33;;;14.88;;
33022;SDS011;19390;51.460;5.710;2023-04-22T02:07:26;17.50;;;15.23;;
33022;SDS011;19390;51.460;5.710;2023-04-22T02:09:52;17.05;;;15.25;;
33022;SDS011;19390;51.460;5.710;2023-04-22T02:12:17;16.38;;;14.60;;
33022;SDS011;19390;51.460;5.710;2023-04-22T02:14:43;17.02;;;14.93;;
33022;SDS011;19390;51.460;5.710;2023-04-22T02:17:08;17.80;;;15.27;;
33022;SDS011;19390;51.460;5.710;2023-04-22T02:19:34;18.27;;;16.13;;
33022;SDS011;19390;51.460;5.710;2023-04-22T02:22:00;17.58;;;14.35;;
33022;SDS011;19390;51.460;5.710;2023-04-22T02:24:26;14.35;;;12.88;;
33022;SDS011;19390;51.460;5.710;2023-04-22T02:26:51;15.27;;;13.68;;
33022;SDS011;19390;51.460;5.710;2023-04-22T02:29:17;16.38;;;14.13;;
33022;SDS011;19390;51.460;5.710;2023-04-22T02:31:43;15.25;;;13.63;;
33022;SDS011;19390;51.460;5.710;2023-04-22T02:34:08;17.98;;;15.50;;
33022;SDS011;19390;51.460;5.710;2023-04-22T02:36:34;19.42;;;14.70;;
33022;SDS011;19390;51.460;5.710;2023-04-22T02:39:03;23.00;;;18.33;;
33022;SDS011;19390;51.460;5.710;2023-04-22T02:41:29;21.30;;;16.27;;
33022;SDS011;19390;51.460;5.710;2023-04-22T02:43:55;20.17;;;16.67;;
33022;SDS011;19390;51.460;5.710;2023-04-22T02:46:21;20.27;;;16.58;;
33022;SDS011;19390;51.460;5.710;2023-04-22T02:48:47;19.48;;;17.30;;
33022;SDS011;19390;51.460;5.710;2023-04-22T02:51:13;18.27;;;15.13;;
33022;SDS011;19390;51.460;5.710;2023-04-22T02:53:39;20.33;;;16.38;;
33022;SDS011;19390;51.460;5.710;2023-04-22T02:56:05;19.88;;;16.23;;
33022;SDS011;19390;51.460;5.710;2023-04-22T02:58:30;21.40;;;16.95;;
33022;SDS011;19390;51.460;5.710;2023-04-22T03:00:56;23.15;;;18.33;;
33022;SDS011;19390;51.460;5.710;2023-04-22T03:03:22;22.00;;;18.30;;
33022;SDS011;19390;51.460;5.710;2023-04-22T03:05:47;22.38;;;17.23;;
33022;SDS011;19390;51.460;5.710;2023-04-22T03:08:13;21.83;;;16.65;;
33022;SDS011;19390;51.460;5.710;2023-04-22T03:10:39;20.50;;;17.10;;
33022;SDS011;19390;51.460;5.710;2023-04-22T03:13:04;21.35;;;17.88;;
33022;SDS011;19390;51.460;5.710;2023-04-22T03:15:30;19.33;;;15.73;;
33022;SDS011;19390;51.460;5.710;2023-04-22T03:17:55;25.58;;;18.52;;
33022;SDS011;19390;51.460;5.710;2023-04-22T03:20:21;25.63;;;19.52;;
33022;SDS011;19390;51.460;5.710;2023-04-22T03:22:47;22.60;;;19.08;;
33022;SDS011;19390;51.460;5.710;2023-04-22T03:25:12;24.77;;;19.48;;
33022;SDS011;19390;51.460;5.710;2023-04-22T03:27:38;29.98;;;22.20;;
33022;SDS011;19390;51.460;5.710;2023-04-22T03:30:04;28.98;;;21.70;;
33022;SDS011;19390;51.460;5.710;2023-04-22T03:32:30;22.48;;;18.27;;
33022;SDS011;19390;51.460;5.710;2023-04-22T03:34:56;20.45;;;18.02;;
33022;SDS011;19390;51.460;5.710;2023-04-22T03:37:22;23.02;;;18.58;;
33022;SDS011;19390;51.460;5.710;2023-04-22T03:39:47;24.88;;;19.17;;
33022;SDS011;19390;51.460;5.710;2023-04-22T03:42:13;26.02;;;19.27;;
33022;SDS011;19390;51.460;5.710;2023-04-22T03:44:39;20.77;;;17.27;;
33022;SDS011;19390;51.460;5.710;2023-04-22T03:47:05;26.20;;;20.23;;
33022;SDS011;19390;51.460;5.710;2023-04-22T03:49:30;19.83;;;16.75;;
33022;SDS011;19390;51.460;5.710;2023-04-22T03:51:56;18.85;;;15.65;;
33022;SDS011;19390;51.460;5.710;2023-04-22T03:54:22;20.10;;;16.92;;
33022;SDS011;19390;51.460;5.710;2023-04-22T03:56:48;21.95;;;17.10;;
33022;SDS011;19390;51.460;5.710;2023-04-22T03:59:13;25.02;;;19.90;;
33022;SDS011;19390;51.460;5.710;2023-04-22T04:01:39;25.75;;;20.73;;
33022;SDS011;19390;51.460;5.710;2023-04-22T04:04:05;25.52;;;20.25;;
33022;SDS011;19390;51.460;5.710;2023-04-22T04:06:30;22.00;;;18.77;;
33022;SDS011;19390;51.460;5.710;2023-04-22T04:08:56;22.83;;;19.33;;
33022;SDS011;19390;51.460;5.710;2023-04-22T04:11:22;20.45;;;16.90;;
33022;SDS011;19390;51.460;5.710;2023-04-22T04:13:48;27.02;;;21.75;;
33022;SDS011;19390;51.460;5.710;2023-04-22T04:16:13;29.80;;;22.33;;
33022;SDS011;19390;51.460;5.710;2023-04-22T04:18:40;24.80;;;17.98;;
33022;SDS011;19390;51.460;5.710;2023-04-22T04:21:05;23.10;;;20.02;;
33022;SDS011;19390;51.460;5.710;2023-04-22T04:23:31;20.20;;;17.38;;
33022;SDS011;19390;51.460;5.710;2023-04-22T04:25:57;30.55;;;20.02;;
33022;SDS011;19390;51.460;5.710;2023-04-22T04:28:25;22.42;;;18.40;;
33022;SDS011;19390;51.460;5.710;2023-04-22T04:30:51;19.45;;;16.25;;
33022;SDS011;19390;51.460;5.710;2023-04-22T04:33:17;23.98;;;18.90;;
33022;SDS011;19390;51.460;5.710;2023-04-22T04:35:43;24.73;;;20.25;;
33022;SDS011;19390;51.460;5.710;2023-04-22T04:38:08;18.33;;;16.05;;
33022;SDS011;19390;51.460;5.710;2023-04-22T04:40:35;22.95;;;17.13;;
33022;SDS011;19390;51.460;5.710;2023-04-22T04:43:01;23.67;;;18.30;;
33022;SDS011;19390;51.460;5.710;2023-04-22T04:45:28;25.88;;;20.80;;
33022;SDS011;19390;51.460;5.710;2023-04-22T04:47:54;20.45;;;16.90;;
33022;SDS011;19390;51.460;5.710;2023-04-22T04:50:20;20.85;;;17.77;;
33022;SDS011;19390;51.460;5.710;2023-04-22T04:52:46;21.38;;;16.67;;
33022;SDS011;19390;51.460;5.710;2023-04-22T04:55:15;24.42;;;18.52;;
33022;SDS011;19390;51.460;5.710;2023-04-22T04:57:42;22.65;;;17.65;;
33022;SDS011;19390;51.460;5.710;2023-04-22T05:00:08;19.88;;;17.50;;
33022;SDS011;19390;51.460;5.710;2023-04-22T05:02:34;22.85;;;18.90;;
33022;SDS011;19390;51.460;5.710;2023-04-22T05:05:00;23.42;;;18.83;;
33022;SDS011;19390;51.460;5.710;2023-04-22T05:07:26;24.67;;;19.08;;
33022;SDS011;19390;51.460;5.710;2023-04-22T05:09:52;22.98;;;18.15;;
33022;SDS011;19390;51.460;5.710;2023-04-22T05:12:17;24.17;;;18.55;;
33022;SDS011;19390;51.460;5.710;2023-04-22T05:14:43;21.08;;;18.23;;
33022;SDS011;19390;51.460;5.710;2023-04-22T05:17:10;23.58;;;18.58;;
33022;SDS011;19390;51.460;5.710;2023-04-22T05:19:36;22.52;;;19.27;;
33022;SDS011;19390;51.460;5.710;2023-04-22T05:22:02;22.85;;;19.27;;
33022;SDS011;19390;51.460;5.710;2023-04-22T05:24:27;23.70;;;19.60;;
33022;SDS011;19390;51.460;5.710;2023-04-22T05:26:53;20.80;;;18.17;;
33022;SDS011;19390;51.460;5.710;2023-04-22T05:29:18;24.02;;;19.55;;
33022;SDS011;19390;51.460;5.710;2023-04-22T05:31:44;24.98;;;20.13;;
33022;SDS011;19390;51.460;5.710;2023-04-22T05:34:10;24.52;;;18.33;;
33022;SDS011;19390;51.460;5.710;2023-04-22T05:36:36;24.48;;;18.92;;
33022;SDS011;19390;51.460;5.710;2023-04-22T05:39:01;21.48;;;18.25;;
33022;SDS011;19390;51.460;5.710;2023-04-22T05:41:27;22.88;;;18.27;;
33022;SDS011;19390;51.460;5.710;2023-04-22T05:43:53;19.65;;;16.48;;
33022;SDS011;19390;51.460;5.710;2023-04-22T05:46:18;20.80;;;15.98;;
33022;SDS011;19390;51.460;5.710;2023-04-22T05:48:44;18.13;;;15.70;;
33022;SDS011;19390;51.460;5.710;2023-04-22T05:51:10;17.85;;;15.57;;
33022;SDS011;19390;51.460;5.710;2023-04-22T05:53:35;18.27;;;15.43;;
33022;SDS011;19390;51.460;5.710;2023-04-22T05:56:01;17.60;;;15.05;;
33022;SDS011;19390;51.460;5.710;2023-04-22T05:58:26;16.90;;;13.65;;
33022;SDS011;19390;51.460;5.710;2023-04-22T06:00:52;16.95;;;13.77;;
33022;SDS011;19390;51.460;5.710;2023-04-22T06:03:17;18.40;;;13.80;;
33022;SDS011;19390;51.460;5.710;2023-04-22T06:05:43;12.27;;;10.40;;
33022;SDS011;19390;51.460;5.710;2023-04-22T06:08:09;12.95;;;10.60;;
33022;SDS011;19390;51.460;5.710;2023-04-22T06:10:35;17.55;;;13.43;;
33022;SDS011;19390;51.460;5.710;2023-04-22T06:13:00;13.50;;;11.63;;
33022;SDS011;19390;51.460;5.710;2023-04-22T06:15:26;15.50;;;12.30;;
33022;SDS011;19390;51.460;5.710;2023-04-22T06:17:52;15.27;;;11.43;;
33022;SDS011;19390;51.460;5.710;2023-04-22T06:20:17;14.77;;;11.60;;
33022;SDS011;19390;51.460;5.710;2023-04-22T06:22:43;15.13;;;11.93;;
33022;SDS011;19390;51.460;5.710;2023-04-22T06:25:08;14.75;;;11.88;;
33022;SDS011;19390;51.460;5.710;2023-04-22T06:27:34;16.23;;;12.05;;
33022;SDS011;19390;51.460;5.710;2023-04-22T06:30:00;15.05;;;12.05;;
33022;SDS011;19390;51.460;5.710;2023-04-22T06:32:25;15.15;;;12.63;;
33022;SDS011;19390;51.460;5.710;2023-04-22T06:34:51;14.48;;;12.25;;
33022;SDS011;19390;51.460;5.710;2023-04-22T06:37:16;14.80;;;11.15;;
33022;SDS011;19390;51.460;5.710;2023-04-22T06:39:42;12.25;;;10.70;;
33022;SDS011;19390;51.460;5.710;2023-04-22T06:42:07;12.23;;;10.82;;
33022;SDS011;19390;51.460;5.710;2023-04-22T06:44:33;14.80;;;12.27;;
33022;SDS011;19390;51.460;5.710;2023-04-22T06:46:59;13.10;;;11.48;;
33022;SDS011;19390;51.460;5.710;2023-04-22T06:49:24;11.98;;;10.45;;
33022;SDS011;19390;51.460;5.710;2023-04-22T06:51:50;13.40;;;11.63;;
33022;SDS011;19390;51.460;5.710;2023-04-22T06:54:15;11.80;;;10.20;;
33022;SDS011;19390;51.460;5.710;2023-04-22T06:56:41;13.38;;;10.65;;
33022;SDS011;19390;51.460;5.710;2023-04-22T06:59:06;14.23;;;10.20;;
33022;SDS011;19390;51.460;5.710;2023-04-22T07:01:32;11.65;;;10.45;;
33022;SDS011;19390;51.460;5.710;2023-04-22T07:03:58;11.85;;;10.05;;
33022;SDS011;19390;51.460;5.710;2023-04-22T07:06:23;14.43;;;11.00;;
33022;SDS011;19390;51.460;5.710;2023-04-22T07:08:49;13.55;;;11.07;;
33022;SDS011;19390;51.460;5.710;2023-04-22T07:11:15;14.05;;;11.55;;
33022;SDS011;19390;51.460;5.710;2023-04-22T07:13:40;11.35;;;8.93;;
33022;SDS011;19390;51.460;5.710;2023-04-22T07:16:06;14.10;;;11.73;;
33022;SDS011;19390;51.460;5.710;2023-04-22T07:18:31;13.77;;;9.95;;
33022;SDS011;19390;51.460;5.710;2023-04-22T07:20:59;12.95;;;10.07;;
33022;SDS011;19390;51.460;5.710;2023-04-22T07:23:25;10.80;;;8.82;;
33022;SDS011;19390;51.460;5.710;2023-04-22T07:25:50;12.57;;;8.65;;
33022;SDS011;19390;51.460;5.710;2023-04-22T07:28:16;9.68;;;7.97;;
33022;SDS011;19390;51.460;5.710;2023-04-22T07:30:42;9.27;;;7.95;;
33022;SDS011;19390;51.460;5.710;2023-04-22T07:33:07;9.60;;;7.80;;
33022;SDS011;19390;51.460;5.710;2023-04-22T07:35:33;10.70;;;8.05;;
33022;SDS011;19390;51.460;5.710;2023-04-22T07:37:58;10.32;;;9.23;;
33022;SDS011;19390;51.460;5.710;2023-04-22T07:40:24;11.48;;;9.57;;
33022;SDS011;19390;51.460;5.710;2023-04-22T07:42:49;12.20;;;9.70;;
33022;SDS011;19390;51.460;5.710;2023-04-22T07:45:15;13.05;;;9.70;;
33022;SDS011;19390;51.460;5.710;2023-04-22T07:47:41;10.43;;;9.43;;
33022;SDS011;19390;51.460;5.710;2023-04-22T07:50:06;10.13;;;8.80;;
33022;SDS011;19390;51.460;5.710;2023-04-22T07:52:32;11.20;;;9.52;;
33022;SDS011;19390;51.460;5.710;2023-04-22T07:54:57;12.70;;;9.38;;
33022;SDS011;19390;51.460;5.710;2023-04-22T07:57:23;10.05;;;8.38;;
33022;SDS011;19390;51.460;5.710;2023-04-22T07:59:50;9.13;;;8.23;;
33022;SDS011;19390;51.460;5.710;2023-04-22T08:02:16;10.73;;;9.18;;
33022;SDS011;19390;51.460;5.710;2023-04-22T08:04:42;10.57;;;8.05;;
33022;SDS011;19390;51.460;5.710;2023-04-22T08:07:07;11.93;;;8.55;;
33022;SDS011;19390;51.460;5.710;2023-04-22T08:09:33;16.67;;;8.90;;
33022;SDS011;19390;51.460;5.710;2023-04-22T08:11:59;7.53;;;6.68;;
33022;SDS011;19390;51.460;5.710;2023-04-22T08:14:25;9.77;;;7.65;;
33022;SDS011;19390;51.460;5.710;2023-04-22T08:16:51;8.00;;;6.68;;
33022;SDS011;19390;51.460;5.710;2023-04-22T08:19:17;8.18;;;5.13;;
33022;SDS011;19390;51.460;5.710;2023-04-22T08:21:43;7.60;;;5.57;;
33022;SDS011;19390;51.460;5.710;2023-04-22T08:24:09;9.30;;;5.22;;
33022;SDS011;19390;51.460;5.710;2023-04-22T08:26:35;6.95;;;5.38;;
33022;SDS011;19390;51.460;5.710;2023-04-22T08:29:02;6.68;;;5.57;;
33022;SDS011;19390;51.460;5.710;2023-04-22T08:31:28;8.25;;;4.78;;
33022;SDS011;19390;51.460;5.710;2023-04-22T08:33:54;6.45;;;5.68;;
33022;SDS011;19390;51.460;5.710;2023-04-22T08:36:20;7.03;;;5.32;;
33022;SDS011;19390;51.460;5.710;2023-04-22T08:38:47;7.50;;;5.38;;
33022;SDS011;19390;51.460;5.710;2023-04-22T08:41:13;7.22;;;5.30;;
33022;SDS011;19390;51.460;5.710;2023-04-22T08:43:40;6.57;;;5.90;;
33022;SDS011;19390;51.460;5.710;2023-04-22T08:46:06;5.82;;;5.30;;
33022;SDS011;19390;51.460;5.710;2023-04-22T08:48:32;8.60;;;5.70;;
33022;SDS011;19390;51.460;5.710;2023-04-22T08:50:57;7.78;;;5.75;;
33022;SDS011;19390;51.460;5.710;2023-04-22T08:53:24;5.80;;;5.30;;
33022;SDS011;19390;51.460;5.710;2023-04-22T08:55:50;9.02;;;5.35;;
33022;SDS011;19390;51.460;5.710;2023-04-22T08:58:16;6.25;;;5.13;;
33022;SDS011;19390;51.460;5.710;2023-04-22T09:00:42;7.82;;;5.25;;
33022;SDS011;19390;51.460;5.710;2023-04-22T09:03:08;5.95;;;5.25;;
33022;SDS011;19390;51.460;5.710;2023-04-22T09:05:35;5.93;;;5.43;;
33022;SDS011;19390;51.460;5.710;2023-04-22T09:08:02;8.32;;;5.03;;
33022;SDS011;19390;51.460;5.710;2023-04-22T09:10:31;6.55;;;5.47;;
33022;SDS011;19390;51.460;5.710;2023-04-22T09:12:57;8.85;;;5.70;;
33022;SDS011;19390;51.460;5.710;2023-04-22T09:15:23;7.53;;;5.53;;
33022;SDS011;19390;51.460;5.710;2023-04-22T09:17:50;9.70;;;5.95;;
33022;SDS011;19390;51.460;5.710;2023-04-22T09:20:16;7.10;;;6.40;;
33022;SDS011;19390;51.460;5.710;2023-04-22T09:22:44;7.47;;;6.55;;
33022;SDS011;19390;51.460;5.710;2023-04-22T09:25:17;8.73;;;6.63;;
33022;SDS011;19390;51.460;5.710;2023-04-22T09:27:47;7.55;;;6.55;;
33022;SDS011;19390;51.460;5.710;2023-04-22T09:30:16;9.23;;;6.40;;
33022;SDS011;19390;51.460;5.710;2023-04-22T09:32:53;9.23;;;6.60;;
33022;SDS011;19390;51.460;5.710;2023-04-22T09:35:28;6.75;;;5.90;;
33022;SDS011;19390;51.460;5.710;2023-04-22T09:38:03;9.13;;;5.85;;
33022;SDS011;19390;51.460;5.710;2023-04-22T09:40:33;8.80;;;5.45;;
33022;SDS011;19390;51.460;5.710;2023-04-22T09:43:01;7.03;;;5.90;;
33022;SDS011;19390;51.460;5.710;2023-04-22T09:47:59;6.80;;;5.60;;
33022;SDS011;19390;51.460;5.710;2023-04-22T09:50:35;6.88;;;4.70;;
33022;SDS011;19390;51.460;5.710;2023-04-22T09:53:04;6.55;;;5.90;;
33022;SDS011;19390;51.460;5.710;2023-04-22T09:55:35;6.80;;;5.45;;
33022;SDS011;19390;51.460;5.710;2023-04-22T09:58:09;6.90;;;5.32;;
33022;SDS011;19390;51.460;5.710;2023-04-22T10:00:40;6.05;;;4.55;;
33022;SDS011;19390;51.460;5.710;2023-04-22T10:03:08;7.80;;;5.10;;
33022;SDS011;19390;51.460;5.710;2023-04-22T10:05:34;7.47;;;5.68;;
33022;SDS011;19390;51.460;5.710;2023-04-22T10:08:04;5.28;;;4.78;;
33022;SDS011;19390;51.460;5.710;2023-04-22T10:10:31;5.47;;;4.93;;
33022;SDS011;19390;51.460;5.710;2023-04-22T10:12:58;6.38;;;5.13;;
33022;SDS011;19390;51.460;5.710;2023-04-22T10:15:31;7.90;;;5.57;;
33022;SDS011;19390;51.460;5.710;2023-04-22T10:17:58;10.02;;;5.35;;
33022;SDS011;19390;51.460;5.710;2023-04-22T10:20:24;8.07;;;5.20;;
33022;SDS011;19390;51.460;5.710;2023-04-22T10:22:53;7.45;;;4.60;;
33022;SDS011;19390;51.460;5.710;2023-04-22T10:25:21;5.55;;;4.95;;
33022;SDS011;19390;51.460;5.710;2023-04-22T10:27:53;6.20;;;5.60;;
33022;SDS011;19390;51.460;5.710;2023-04-22T10:30:26;6.82;;;5.38;;
33022;SDS011;19390;51.460;5.710;2023-04-22T10:32:53;7.75;;;5.63;;
33022;SDS011;19390;51.460;5.710;2023-04-22T10:35:19;6.20;;;5.60;;
33022;SDS011;19390;51.460;5.710;2023-04-22T10:37:52;8.23;;;6.20;;
33022;SDS011;19390;51.460;5.710;2023-04-22T10:40:18;8.73;;;6.80;;
33022;SDS011;19390;51.460;5.710;2023-04-22T10:42:49;8.55;;;6.30;;
33022;SDS011;19390;51.460;5.710;2023-04-22T10:45:16;8.50;;;6.85;;
33022;SDS011;19390;51.460;5.710;2023-04-22T10:47:42;8.50;;;6.90;;
33022;SDS011;19390;51.460;5.710;2023-04-22T10:55:20;11.20;;;6.50;;
33022;SDS011;19390;51.460;5.710;2023-04-22T10:57:47;7.50;;;6.10;;
33022;SDS011;19390;51.460;5.710;2023-04-22T11:00:25;8.85;;;6.68;;
33022;SDS011;19390;51.460;5.710;2023-04-22T11:05:32;10.48;;;6.60;;
33022;SDS011;19390;51.460;5.710;2023-04-22T11:08:17;8.18;;;7.05;;
33022;SDS011;19390;51.460;5.710;2023-04-22T11:10:48;8.48;;;5.88;;
33022;SDS011;19390;51.460;5.710;2023-04-22T11:13:19;6.93;;;6.07;;
33022;SDS011;19390;51.460;5.710;2023-04-22T11:15:49;10.27;;;7.63;;
33022;SDS011;19390;51.460;5.710;2023-04-22T11:18:22;10.00;;;7.72;;
33022;SDS011;19390;51.460;5.710;2023-04-22T11:20:49;9.70;;;7.15;;
33022;SDS011;19390;51.460;5.710;2023-04-22T11:23:23;8.70;;;7.80;;
33022;SDS011;19390;51.460;5.710;2023-04-22T11:25:57;11.45;;;8.00;;
33022;SDS011;19390;51.460;5.710;2023-04-22T11:28:30;9.30;;;7.47;;
33022;SDS011;19390;51.460;5.710;2023-04-22T11:33:28;7.68;;;6.60;;
33022;SDS011;19390;51.460;5.710;2023-04-22T11:35:55;8.13;;;6.38;;
33022;SDS011;19390;51.460;5.710;2023-04-22T11:38:22;7.60;;;6.38;;
33022;SDS011;19390;51.460;5.710;2023-04-22T11:40:48;9.27;;;6.03;;
33022;SDS011;19390;51.460;5.710;2023-04-22T11:43:13;6.97;;;5.30;;
33022;SDS011;19390;51.460;5.710;2023-04-22T11:45:39;6.78;;;5.20;;
33022;SDS011;19390;51.460;5.710;2023-04-22T11:48:06;5.95;;;4.72;;
33022;SDS011;19390;51.460;5.710;2023-04-22T11:50:37;11.95;;;5.00;;
33022;SDS011;19390;51.460;5.710;2023-04-22T11:53:12;7.30;;;5.10;;
33022;SDS011;19390;51.460;5.710;2023-04-22T11:55:39;5.50;;;4.68;;
33022;SDS011;19390;51.460;5.710;2023-04-22T11:58:07;6.72;;;4.57;;
33022;SDS011;19390;51.460;5.710;2023-04-22T12:00:45;6.20;;;4.63;;
33022;SDS011;19390;51.460;5.710;2023-04-22T12:03:18;6.93;;;4.22;;
33022;SDS011;19390;51.460;5.710;2023-04-22T12:08:24;4.38;;;3.90;;
33022;SDS011;19390;51.460;5.710;2023-04-22T12:10:55;5.85;;;4.20;;
33022;SDS011;19390;51.460;5.710;2023-04-22T12:13:26;6.03;;;3.83;;
33022;SDS011;19390;51.460;5.710;2023-04-22T12:16:00;5.38;;;4.10;;
33022;SDS011;19390;51.460;5.710;2023-04-22T12:18:32;5.82;;;4.07;;
33022;SDS011;19390;51.460;5.710;2023-04-22T12:23:28;4.97;;;4.00;;
33022;SDS011;19390;51.460;5.710;2023-04-22T12:25:55;5.07;;;4.13;;
33022;SDS011;19390;51.460;5.710;2023-04-22T12:28:21;5.68;;;4.30;;
33022;SDS011;19390;51.460;5.710;2023-04-22T12:30:47;6.05;;;4.43;;
33022;SDS011;19390;51.460;5.710;2023-04-22T12:33:13;5.63;;;4.60;;
33022;SDS011;19390;51.460;5.710;2023-04-22T12:35:39;5.88;;;4.90;;
33022;SDS011;19390;51.460;5.710;2023-04-22T12:38:05;8.38;;;4.82;;
33022;SDS011;19390;51.460;5.710;2023-04-22T12:40:30;6.25;;;4.28;;
33022;SDS011;19390;51.460;5.710;2023-04-22T12:42:56;6.63;;;4.82;;
33022;SDS011;19390;51.460;5.710;2023-04-22T12:45:22;5.00;;;4.43;;
33022;SDS011;19390;51.460;5.710;2023-04-22T12:47:49;6.45;;;4.78;;
33022;SDS011;19390;51.460;5.710;2023-04-22T12:50:17;8.43;;;4.90;;
33022;SDS011;19390;51.460;5.710;2023-04-22T12:52:43;6.50;;;4.25;;
33022;SDS011;19390;51.460;5.710;2023-04-22T12:55:09;7.32;;;4.35;;
33022;SDS011;19390;51.460;5.710;2023-04-22T12:57:34;9.48;;;4.53;;
33022;SDS011;19390;51.460;5.710;2023-04-22T13:00:00;6.63;;;4.28;;
33022;SDS011;19390;51.460;5.710;2023-04-22T13:02:26;7.28;;;4.32;;
33022;SDS011;19390;51.460;5.710;2023-04-22T13:04:51;5.60;;;4.15;;
33022;SDS011;19390;51.460;5.710;2023-04-22T13:07:17;7.10;;;4.28;;
33022;SDS011;19390;51.460;5.710;2023-04-22T13:09:43;7.65;;;4.47;;
33022;SDS011;19390;51.460;5.710;2023-04-22T13:12:09;7.80;;;4.53;;
33022;SDS011;19390;51.460;5.710;2023-04-22T13:14:35;6.63;;;4.55;;
33022;SDS011;19390;51.460;5.710;2023-04-22T13:17:00;5.95;;;4.28;;
33022;SDS011;19390;51.460;5.710;2023-04-22T13:19:27;4.10;;;3.53;;
33022;SDS011;19390;51.460;5.710;2023-04-22T13:21:54;5.38;;;4.25;;
33022;SDS011;19390;51.460;5.710;2023-04-22T13:24:20;5.63;;;3.97;;
33022;SDS011;19390;51.460;5.710;2023-04-22T13:26:46;6.43;;;4.10;;
33022;SDS011;19390;51.460;5.710;2023-04-22T13:29:11;5.00;;;4.50;;
33022;SDS011;19390;51.460;5.710;2023-04-22T13:31:38;6.13;;;4.20;;
33022;SDS011;19390;51.460;5.710;2023-04-22T13:34:09;6.53;;;4.75;;
33022;SDS011;19390;51.460;5.710;2023-04-22T13:36:35;8.02;;;5.75;;
33022;SDS011;19390;51.460;5.710;2023-04-22T13:39:01;8.15;;;6.80;;
33022;SDS011;19390;51.460;5.710;2023-04-22T13:41:26;8.45;;;7.63;;
33022;SDS011;19390;51.460;5.710;2023-04-22T13:43:52;10.25;;;8.57;;
33022;SDS011;19390;51.460;5.710;2023-04-22T13:46:19;9.32;;;8.40;;
33022;SDS011;19390;51.460;5.710;2023-04-22T13:48:45;9.50;;;8.52;;
33022;SDS011;19390;51.460;5.710;2023-04-22T13:51:11;13.23;;;10.30;;
33022;SDS011;19390;51.460;5.710;2023-04-22T13:53:36;9.85;;;8.85;;
33022;SDS011;19390;51.460;5.710;2023-04-22T13:56:02;11.10;;;9.50;;
33022;SDS011;19390;51.460;5.710;2023-04-22T13:58:27;11.48;;;10.02;;
33022;SDS011;19390;51.460;5.710;2023-04-22T14:00:53;12.10;;;9.73;;
33022;SDS011;19390;51.460;5.710;2023-04-22T14:03:19;12.85;;;9.25;;
33022;SDS011;19390;51.460;5.710;2023-04-22T14:05:44;11.18;;;8.13;;
33022;SDS011;19390;51.460;5.710;2023-04-22T14:08:10;12.85;;;9.18;;
33022;SDS011;19390;51.460;5.710;2023-04-22T14:10:36;8.75;;;7.55;;
33022;SDS011;19390;51.460;5.710;2023-04-22T14:15:54;10.27;;;8.13;;
33022;SDS011;19390;51.460;5.710;2023-04-22T14:18:20;9.57;;;8.20;;
33022;SDS011;19390;51.460;5.710;2023-04-22T14:20:49;8.30;;;7.00;;
33022;SDS011;19390;51.460;5.710;2023-04-22T14:23:15;8.50;;;7.60;;
33022;SDS011;19390;51.460;5.710;2023-04-22T14:25:42;9.38;;;7.43;;
33022;SDS011;19390;51.460;5.710;2023-04-22T14:28:08;8.23;;;7.07;;
33022;SDS011;19390;51.460;5.710;2023-04-22T14:30:34;9.95;;;7.35;;
33022;SDS011;19390;51.460;5.710;2023-04-22T14:33:00;9.10;;;7.03;;
33022;SDS011;19390;51.460;5.710;2023-04-22T14:35:26;12.25;;;7.90;;
33022;SDS011;19390;51.460;5.710;2023-04-22T14:37:52;8.38;;;7.32;;
33022;SDS011;19390;51.460;5.710;2023-04-22T14:40:17;8.10;;;7.22;;
33022;SDS011;19390;51.460;5.710;2023-04-22T14:42:44;9.27;;;6.95;;
33022;SDS011;19390;51.460;5.710;2023-04-22T14:45:10;8.50;;;6.22;;
33022;SDS011;19390;51.460;5.710;2023-04-22T14:47:38;7.60;;;5.68;;
33022;SDS011;19390;51.460;5.710;2023-04-22T14:50:04;8.90;;;6.25;;